Flight Briefing for CPX108

Departure Arrival
Seattle-Tacoma International Airport (KSEA)
Click to view FAA NOTAMS
Daniel K Inouye International Airport (PHNL)
Click to view FAA NOTAMS
Departure Time Arrival Time
N/A N/A
Aircraft Distance
B747-400BCF 2329nm
Departure METAR Arrival METAR
KSEA 232253Z VRB05KT 10SM FEW040 SCT250 24/11 A2991 RMK AO2 SLP133 T02390111 PHNL 232253Z 16009KT 10SM FEW025 FEW045 31/20 A3003 RMK AO2 SLP167 T03060200
Suggested Route
HAROB6 HQM SEDAR FOZZI HEKAB A332 HALLI BOARD R464 BITTA MAGGI3


View recent IFR Routes data
Notes



Charts and Procedures

Charts for KSEA
No chart available
Charts for PHNL
No chart available

Windy.com Weather Map